createdAt,value
2014-09-27T09:17:53.839Z,23.2
2014-09-27T09:18:12.073Z,23.2
2014-09-27T09:18:30.308Z,23.1
2014-09-27T09:18:48.029Z,23
2014-09-27T09:19:05.139Z,23
2014-09-27T09:19:22.107Z,22.9
2014-09-27T09:19:40.469Z,22.9
2014-09-27T09:19:58.703Z,22.8
2014-09-27T09:20:16.922Z,22.8
2014-09-27T09:20:34.518Z,22.8
2014-09-27T09:20:52.736Z,22.7
2014-09-27T09:21:10.346Z,22.7
2014-09-27T09:21:27.940Z,22.7
2014-09-27T09:21:46.176Z,22.7
2014-09-27T09:22:04.426Z,22.7
2014-09-27T09:22:22.145Z,22.7
2014-09-27T09:22:40.364Z,22.6
2014-09-27T09:22:58.599Z,22.6
2014-09-27T09:23:16.818Z,22.6
2014-09-27T09:23:35.193Z,22.6
2014-09-27T09:23:52.789Z,22.6
2014-09-27T09:24:11.055Z,22.6
2014-09-27T09:24:29.414Z,22.6
2014-09-27T09:24:47.635Z,22.7
2014-09-27T09:25:05.854Z,22.7
2014-09-27T09:25:22.823Z,22.7
2014-09-27T09:25:41.057Z,22.7
2014-09-27T09:25:58.028Z,22.7
2014-09-27T09:26:15.621Z,22.7
2014-09-27T09:26:33.856Z,22.7
2014-09-27T09:26:50.202Z,22.7
2014-09-27T09:27:07.811Z,22.6
2014-09-27T09:27:26.030Z,22.6
2014-09-27T09:27:43.639Z,22.6
2014-09-27T09:28:00.594Z,22.7
2014-09-27T09:28:18.204Z,22.7
2014-09-27T09:28:36.438Z,22.7
2014-09-27T09:28:54.018Z,22.7
2014-09-27T09:29:12.252Z,22.6
2014-09-27T09:29:29.846Z,22.6
2014-09-27T09:29:47.440Z,22.7
2014-09-27T09:30:05.801Z,22.7
2014-09-27T09:30:24.020Z,22.7
2014-09-27T09:30:42.239Z,22.7
2014-09-27T09:30:59.835Z,22.7
2014-09-27T09:31:18.194Z,22.7
2014-09-27T09:31:36.413Z,22.6
2014-09-27T09:31:54.772Z,22.6
2014-09-27T09:32:11.868Z,22.6
2014-09-27T09:32:29.462Z,22.6
2014-09-27T09:32:47.055Z,22.7
2014-09-27T09:33:04.680Z,22.6
2014-09-27T09:33:22.899Z,22.6
2014-09-27T09:33:41.133Z,22.6
2014-09-27T09:33:59.118Z,22.6
2014-09-27T09:34:17.327Z,22.6
2014-09-27T09:34:35.546Z,22.6
2014-09-27T09:34:53.765Z,22.6
2014-09-27T09:35:11.434Z,22.6
2014-09-27T09:35:29.028Z,22.6
2014-09-27T09:35:46.622Z,22.6
2014-09-27T09:36:04.841Z,22.6
2014-09-27T09:36:22.002Z,22.6
2014-09-27T09:36:40.362Z,22.7
2014-09-27T09:36:58.581Z,22.6
2014-09-27T09:37:16.263Z,22.7
2014-09-27T09:37:34.497Z,22.7
2014-09-27T09:37:52.716Z,22.6
2014-09-27T09:38:10.310Z,22.7
2014-09-27T09:38:28.072Z,22.7
2014-09-27T09:38:45.665Z,22.7
2014-09-27T09:39:02.618Z,22.7
2014-09-27T09:39:20.255Z,22.7
2014-09-27T09:39:37.849Z,22.7
2014-09-27T09:39:55.442Z,22.7
2014-09-27T09:40:13.677Z,22.7
2014-09-27T09:40:31.921Z,22.7
2014-09-27T09:40:49.656Z,22.7
2014-09-27T09:41:07.875Z,22.6
2014-09-27T09:41:26.137Z,22.7
2014-09-27T09:41:43.746Z,22.7
2014-09-27T09:42:01.965Z,22.7
2014-09-27T09:42:20.184Z,22.7
2014-09-27T09:42:37.820Z,22.7
2014-09-27T09:42:55.414Z,22.7
2014-09-27T09:43:13.008Z,22.7
2014-09-27T09:43:31.240Z,22.7
2014-09-27T09:43:49.459Z,22.7
2014-09-27T09:44:07.678Z,22.7
2014-09-27T09:44:25.272Z,22.7
2014-09-27T09:44:43.501Z,22.7
2014-09-27T09:45:01.736Z,22.7
2014-09-27T09:45:19.986Z,22.7
2014-09-27T09:45:38.216Z,22.7
2014-09-27T09:45:56.575Z,22.8
2014-09-27T09:46:13.669Z,22.8
2014-09-27T09:46:31.903Z,22.8
2014-09-27T09:46:49.507Z,22.8
2014-09-27T09:47:07.726Z,22.8
2014-09-27T09:47:25.319Z,22.8
2014-09-27T09:47:43.565Z,22.8
2014-09-27T09:48:01.315Z,22.8
2014-09-27T09:48:19.533Z,22.8
2014-09-27T09:48:37.752Z,22.8
2014-09-27T09:48:56.117Z,22.8
2014-09-27T09:49:13.835Z,22.8
2014-09-27T09:49:32.195Z,22.8
2014-09-27T09:49:50.419Z,22.8
2014-09-27T09:50:08.654Z,22.8
2014-09-27T09:50:26.248Z,22.7
2014-09-27T09:50:43.841Z,22.7
2014-09-27T09:51:01.440Z,22.7
2014-09-27T09:51:19.034Z,22.7
2014-09-27T09:51:37.268Z,22.7
2014-09-27T09:51:54.867Z,22.7
2014-09-27T09:52:13.226Z,22.7
2014-09-27T09:52:30.945Z,22.7
2014-09-27T09:52:47.914Z,22.7
2014-09-27T09:53:06.153Z,22.7
2014-09-27T09:53:24.497Z,22.7
2014-09-27T09:53:42.731Z,22.7
2014-09-27T09:54:01.095Z,22.7
2014-09-27T09:54:19.438Z,22.7
2014-09-27T09:54:37.048Z,22.7
2014-09-27T09:54:55.282Z,22.7
2014-09-27T09:55:12.878Z,22.7
2014-09-27T09:55:30.487Z,22.7
2014-09-27T09:55:48.706Z,22.7
2014-09-27T09:56:06.929Z,22.7
2014-09-27T09:56:24.523Z,22.7
2014-09-27T09:56:42.132Z,22.7
2014-09-27T09:57:00.351Z,22.7
2014-09-27T09:57:17.947Z,22.7
2014-09-27T09:57:36.166Z,22.7
2014-09-27T09:57:54.385Z,22.7
2014-09-27T09:58:12.622Z,22.7
2014-09-27T09:58:30.216Z,22.7
2014-09-27T09:58:48.450Z,22.7
2014-09-27T09:59:06.669Z,22.7
2014-09-27T09:59:24.890Z,22.7
2014-09-27T09:59:42.484Z,22.7
2014-09-27T10:00:00.077Z,22.7
2014-09-27T10:00:18.439Z,22.7
2014-09-27T10:00:36.658Z,22.7
2014-09-27T10:00:54.876Z,22.7
2014-09-27T10:01:12.470Z,22.7
2014-09-27T10:01:30.692Z,22.7
2014-09-27T10:01:48.926Z,22.7
2014-09-27T10:02:07.145Z,22.7
2014-09-27T10:02:24.742Z,22.7
2014-09-27T10:02:42.960Z,22.7
2014-09-27T10:03:00.554Z,22.7
2014-09-27T10:03:18.773Z,22.7
2014-09-27T10:03:37.009Z,22.7
2014-09-27T10:03:55.228Z,22.7
2014-09-27T10:04:13.447Z,22.7
2014-09-27T10:04:31.668Z,22.7
2014-09-27T10:04:49.902Z,22.7
2014-09-27T10:05:08.121Z,22.7
2014-09-27T10:05:25.714Z,22.7
2014-09-27T10:05:43.311Z,22.7
2014-09-27T10:06:00.905Z,22.7
2014-09-27T10:06:19.124Z,22.7
2014-09-27T10:06:37.344Z,22.7
2014-09-27T10:06:55.579Z,22.7
2014-09-27T10:07:13.813Z,22.7
2014-09-27T10:07:31.407Z,22.7
2014-09-27T10:07:49.628Z,22.7
2014-09-27T10:08:07.237Z,22.7
2014-09-27T10:08:25.456Z,22.7
2014-09-27T10:08:43.692Z,22.7
2014-09-27T10:09:01.270Z,22.7
2014-09-27T10:09:19.505Z,22.7
2014-09-27T10:09:37.739Z,22.7
2014-09-27T10:09:55.960Z,22.7
2014-09-27T10:10:14.210Z,22.7
2014-09-27T10:10:31.944Z,22.7
2014-09-27T10:10:49.540Z,22.7
2014-09-27T10:11:07.134Z,22.7
2014-09-27T10:11:25.368Z,22.7
2014-09-27T10:11:42.337Z,22.7
2014-09-27T10:12:00.698Z,22.7
2014-09-27T10:12:18.917Z,22.7
2014-09-27T10:12:36.511Z,22.7
2014-09-27T10:12:54.732Z,22.7
2014-09-27T10:13:12.342Z,22.7
2014-09-27T10:13:29.936Z,22.7
2014-09-27T10:13:48.170Z,22.7
2014-09-27T10:14:06.391Z,22.7
2014-09-27T10:14:23.359Z,22.7
2014-09-27T10:14:41.594Z,22.7
2014-09-27T10:14:59.814Z,22.7
2014-09-27T10:15:48.485Z,22.7
2014-09-27T10:16:06.862Z,22.7
2014-09-27T10:16:24.456Z,22.7
2014-09-27T10:16:42.691Z,22.7
2014-09-27T10:17:00.427Z,22.7
2014-09-27T10:17:17.396Z,22.7
2014-09-27T10:17:35.630Z,22.7
2014-09-27T10:17:53.974Z,22.7
2014-09-27T10:18:12.320Z,22.7
2014-09-27T10:18:30.679Z,22.7
2014-09-27T10:18:48.288Z,22.7
2014-09-27T10:19:05.901Z,22.7
2014-09-27T10:19:24.244Z,22.7
2014-09-27T10:19:41.854Z,22.7
2014-09-27T10:19:59.448Z,22.7
2014-09-27T10:20:17.183Z,22.7
2014-09-27T10:20:35.402Z,22.7
2014-09-27T10:20:53.761Z,22.7
2014-09-27T10:21:11.998Z,22.7
2014-09-27T10:21:30.248Z,22.7
2014-09-27T10:21:48.467Z,22.7
2014-09-27T10:22:06.061Z,22.7
2014-09-27T10:22:24.297Z,22.7
2014-09-27T10:22:41.891Z,22.7
2014-09-27T10:22:59.485Z,22.7
2014-09-27T10:23:17.830Z,22.7
2014-09-27T10:23:36.189Z,22.7
2014-09-27T10:23:54.408Z,22.7
2014-09-27T10:24:12.767Z,22.7
2014-09-27T10:24:31.004Z,22.7
2014-09-27T10:24:49.364Z,22.7
2014-09-27T10:25:07.598Z,22.7
2014-09-27T10:25:25.818Z,22.7
2014-09-27T10:25:43.552Z,22.7
2014-09-27T10:26:01.271Z,22.7
2014-09-27T10:26:19.505Z,22.7
2014-09-27T10:26:37.086Z,22.7
2014-09-27T10:26:55.304Z,22.7
2014-09-27T10:27:12.914Z,22.7
2014-09-27T10:27:30.509Z,22.7
2014-09-27T10:27:48.744Z,22.7
2014-09-27T10:28:06.963Z,22.7
2014-09-27T10:28:24.556Z,22.7
2014-09-27T10:28:42.777Z,22.7
2014-09-27T10:29:00.996Z,22.7
2014-09-27T10:29:19.230Z,22.7
2014-09-27T10:29:37.593Z,22.7
2014-09-27T10:29:55.811Z,22.7
2014-09-27T10:30:14.046Z,22.7
2014-09-27T10:30:31.639Z,22.7
2014-09-27T10:30:49.860Z,22.7
2014-09-27T10:31:08.079Z,22.7
2014-09-27T10:31:26.313Z,22.7
2014-09-27T10:31:44.534Z,22.7
2014-09-27T10:32:02.753Z,22.7
2014-09-27T10:32:21.128Z,22.7
2014-09-27T10:32:38.722Z,22.7
2014-09-27T10:32:56.957Z,22.7
2014-09-27T10:33:14.551Z,22.7
2014-09-27T10:33:32.160Z,22.7
2014-09-27T10:33:49.881Z,22.7
2014-09-27T10:34:06.834Z,22.7
2014-09-27T10:34:24.428Z,22.7
2014-09-27T10:34:42.662Z,22.7
2014-09-27T10:35:00.884Z,22.7
2014-09-27T10:35:19.103Z,22.7
2014-09-27T10:35:37.462Z,22.7
2014-09-27T10:35:55.698Z,22.7
2014-09-27T10:36:13.292Z,22.7
2014-09-27T10:36:30.886Z,22.7
2014-09-27T10:36:48.480Z,22.7
2014-09-27T10:37:06.715Z,22.7
2014-09-27T10:37:25.059Z,22.7
2014-09-27T10:37:42.043Z,22.7
2014-09-27T10:37:59.640Z,22.7
2014-09-27T10:38:17.890Z,22.7
2014-09-27T10:38:35.499Z,22.7
2014-09-27T10:38:53.093Z,22.7
2014-09-27T10:39:11.313Z,22.7
2014-09-27T10:39:29.547Z,22.7
2014-09-27T10:39:47.766Z,22.7
2014-09-27T10:40:05.378Z,22.7
2014-09-27T10:40:22.988Z,22.7
2014-09-27T10:40:41.206Z,22.7
2014-09-27T10:40:59.441Z,22.7
2014-09-27T10:41:17.036Z,22.7
2014-09-27T10:41:35.255Z,22.7
2014-09-27T10:41:53.474Z,22.7
2014-09-27T10:42:11.695Z,22.7
2014-09-27T10:42:29.304Z,22.7
2014-09-27T10:42:47.523Z,22.7
2014-09-27T10:43:05.742Z,22.7
2014-09-27T10:43:23.322Z,22.7
2014-09-27T10:44:11.728Z,22.7
2014-09-27T10:44:29.948Z,22.7
2014-09-27T10:44:48.166Z,22.7
2014-09-27T10:45:06.401Z,22.7
2014-09-27T10:45:24.622Z,22.7
2014-09-27T10:45:42.856Z,22.7
2014-09-27T10:46:00.450Z,22.7
2014-09-27T10:46:18.670Z,22.7
2014-09-27T10:46:35.655Z,22.7
2014-09-27T10:46:53.999Z,22.7
2014-09-27T10:47:11.592Z,22.7
2014-09-27T10:47:29.188Z,22.7
2014-09-27T10:47:46.922Z,22.7
2014-09-27T10:48:04.032Z,22.7
2014-09-27T10:48:22.254Z,22.7
2014-09-27T10:48:40.613Z,22.7
2014-09-27T10:48:58.832Z,22.7
2014-09-27T10:49:16.425Z,22.7
2014-09-27T10:49:34.645Z,22.7
2014-09-27T10:49:52.864Z,22.7
2014-09-27T10:50:11.083Z,22.7
2014-09-27T10:50:28.678Z,22.7
2014-09-27T10:50:47.038Z,22.7
2014-09-27T10:51:04.632Z,22.7
2014-09-27T10:51:22.241Z,22.7
2014-09-27T10:51:39.213Z,22.7
2014-09-27T10:51:56.791Z,22.7
2014-09-27T10:52:15.150Z,22.7
2014-09-27T10:52:32.761Z,22.7
2014-09-27T10:52:50.995Z,22.7
2014-09-27T10:53:08.589Z,22.7
2014-09-27T10:53:26.182Z,22.7
2014-09-27T10:53:43.903Z,22.7
2014-09-27T10:54:02.122Z,22.7
2014-09-27T10:54:19.856Z,22.7
2014-09-27T10:54:38.077Z,22.7
2014-09-27T10:54:55.046Z,22.7
2014-09-27T10:55:13.265Z,22.7
2014-09-27T10:55:30.858Z,22.7
2014-09-27T10:55:48.455Z,22.7
2014-09-27T10:56:06.049Z,22.7
2014-09-27T10:56:24.408Z,22.7
2014-09-27T10:56:42.629Z,22.7
2014-09-27T10:57:00.348Z,22.7
2014-09-27T10:57:17.941Z,22.7
2014-09-27T10:57:36.176Z,22.7
2014-09-27T10:57:53.771Z,22.7
2014-09-27T10:58:12.005Z,22.7
2014-09-27T10:58:30.349Z,22.7
2014-09-27T10:58:48.085Z,22.7
2014-09-27T10:59:06.304Z,22.7
2014-09-27T10:59:23.898Z,22.7
2014-09-27T10:59:42.116Z,22.7
2014-09-27T11:00:00.353Z,22.7
2014-09-27T11:00:18.571Z,22.7
2014-09-27T11:00:36.165Z,22.7
2014-09-27T11:00:54.543Z,22.7
2014-09-27T11:01:12.762Z,22.7
2014-09-27T11:01:29.731Z,22.7
2014-09-27T11:01:47.449Z,22.7
2014-09-27T11:02:05.670Z,22.7
2014-09-27T11:02:23.889Z,22.7
2014-09-27T11:02:42.108Z,22.7
2014-09-27T11:03:00.327Z,22.7
2014-09-27T11:03:18.546Z,22.8
2014-09-27T11:03:36.765Z,22.8
2014-09-27T11:03:54.984Z,22.8
2014-09-27T11:04:13.221Z,22.8
2014-09-27T11:04:30.799Z,22.8
2014-09-27T11:04:47.768Z,22.7
2014-09-27T11:05:05.364Z,22.8
2014-09-27T11:05:22.332Z,22.8
2014-09-27T11:05:39.926Z,22.8
2014-09-27T11:05:57.504Z,22.8
2014-09-27T11:06:15.725Z,22.8
2014-09-27T11:06:33.334Z,22.8
2014-09-27T11:06:51.553Z,22.8
2014-09-27T11:07:09.773Z,22.8
2014-09-27T11:07:27.367Z,22.8
2014-09-27T11:07:44.320Z,22.8
2014-09-27T11:08:01.289Z,22.7
2014-09-27T11:08:19.650Z,22.7
2014-09-27T11:08:37.869Z,22.7
2014-09-27T11:08:56.103Z,22.7
2014-09-27T11:09:14.322Z,22.7
2014-09-27T11:09:31.918Z,22.7
2014-09-27T11:09:48.871Z,22.7
2014-09-27T11:10:07.230Z,22.7
2014-09-27T11:10:25.452Z,22.7
2014-09-27T11:10:43.046Z,22.7
2014-09-27T11:11:00.014Z,22.7
2014-09-27T11:11:17.608Z,22.7
2014-09-27T11:11:35.829Z,22.7
2014-09-27T11:11:54.048Z,22.7
2014-09-27T11:12:12.282Z,22.7
2014-09-27T11:12:30.518Z,22.7
2014-09-27T11:12:47.487Z,22.7
2014-09-27T11:13:05.846Z,22.7
2014-09-27T11:13:23.440Z,22.7
2014-09-27T11:13:41.660Z,22.7
2014-09-27T11:13:58.754Z,22.7
2014-09-27T11:14:16.347Z,22.7
2014-09-27T11:14:34.584Z,22.7
2014-09-27T11:14:52.303Z,22.7
2014-09-27T11:15:10.662Z,22.7
2014-09-27T11:15:29.021Z,22.7
2014-09-27T11:15:46.618Z,22.7
2014-09-27T11:16:04.837Z,22.7
2014-09-27T11:16:23.196Z,22.7
2014-09-27T11:16:40.308Z,22.7
2014-09-27T11:16:57.901Z,22.8
2014-09-27T11:17:16.136Z,22.7
2014-09-27T11:17:34.354Z,22.7
2014-09-27T11:17:52.575Z,22.7
2014-09-27T11:18:10.810Z,22.7
2014-09-27T11:18:28.528Z,22.7
2014-09-27T11:18:46.765Z,22.7
2014-09-27T11:19:04.983Z,22.7
2014-09-27T11:19:23.202Z,22.7
2014-09-27T11:19:41.452Z,22.7
2014-09-27T11:19:59.656Z,22.7
2014-09-27T11:20:17.875Z,22.7
2014-09-27T11:20:36.094Z,22.7
2014-09-27T11:20:53.691Z,22.7
2014-09-27T11:21:11.925Z,22.7
2014-09-27T11:21:29.519Z,22.7
2014-09-27T11:21:47.739Z,22.7
2014-09-27T11:22:05.333Z,22.7
2014-09-27T11:22:23.552Z,22.7
2014-09-27T11:22:41.771Z,22.7
2014-09-27T11:22:59.366Z,22.7
2014-09-27T11:23:17.085Z,22.7
2014-09-27T11:23:35.445Z,22.7
2014-09-27T11:23:53.805Z,22.7
2014-09-27T11:24:12.024Z,22.8
2014-09-27T11:24:30.383Z,22.7
2014-09-27T11:24:47.352Z,22.7
2014-09-27T11:25:05.699Z,22.7
2014-09-27T11:25:23.917Z,22.7
2014-09-27T11:25:42.152Z,22.7
2014-09-27T11:26:00.372Z,22.8
2014-09-27T11:26:17.966Z,22.7
2014-09-27T11:26:36.185Z,22.8
2014-09-27T11:26:54.529Z,22.8
2014-09-27T11:27:12.765Z,22.7
2014-09-27T11:27:30.984Z,22.7
2014-09-27T11:27:48.718Z,22.7
2014-09-27T11:28:06.313Z,22.7
2014-09-27T11:28:23.907Z,22.7
2014-09-27T11:28:42.125Z,22.7
2014-09-27T11:29:00.344Z,22.7
2014-09-27T11:29:18.565Z,22.7
2014-09-27T11:29:36.784Z,22.7
2014-09-27T11:29:55.018Z,22.7
2014-09-27T11:30:12.614Z,22.7
2014-09-27T11:30:30.208Z,22.7
2014-09-27T11:30:47.801Z,22.7
2014-09-27T11:31:05.379Z,22.7
2014-09-27T11:31:22.976Z,22.7
2014-09-27T11:31:41.211Z,22.7
2014-09-27T11:31:59.414Z,22.7
2014-09-27T11:32:17.650Z,22.7
2014-09-27T11:32:35.869Z,22.7
2014-09-27T11:32:54.213Z,22.7
2014-09-27T11:33:12.447Z,22.7
2014-09-27T11:33:30.042Z,22.7
2014-09-27T11:33:47.635Z,22.7
2014-09-27T11:34:05.854Z,22.7
2014-09-27T11:34:23.451Z,22.7
2014-09-27T11:34:41.045Z,22.7
2014-09-27T11:34:59.263Z,22.7
2014-09-27T11:35:17.482Z,22.7
2014-09-27T11:35:35.219Z,22.8
2014-09-27T11:35:52.812Z,22.8
2014-09-27T11:36:10.422Z,22.8
2014-09-27T11:36:28.017Z,22.8
2014-09-27T11:36:45.736Z,22.8
2014-09-27T11:37:03.330Z,22.8
2014-09-27T11:37:20.924Z,22.7
2014-09-27T11:37:39.143Z,22.7
2014-09-27T11:37:57.362Z,22.7
2014-09-27T11:38:15.597Z,22.7
2014-09-27T11:38:33.818Z,22.7
2014-09-27T11:38:52.037Z,22.7
2014-09-27T11:39:10.256Z,22.7
2014-09-27T11:39:28.475Z,22.7
2014-09-27T11:39:46.836Z,22.7
2014-09-27T11:40:04.430Z,22.7
2014-09-27T11:40:22.023Z,22.7
2014-09-27T11:40:40.243Z,22.7
2014-09-27T11:40:58.478Z,22.7
2014-09-27T11:41:16.696Z,22.7
2014-09-27T11:41:34.915Z,22.7
2014-09-27T11:41:53.137Z,22.7
2014-09-27T11:42:10.731Z,22.7
2014-09-27T11:42:28.324Z,22.7
2014-09-27T11:42:46.545Z,22.7
2014-09-27T11:43:04.764Z,22.7
2014-09-27T11:43:22.358Z,22.7
2014-09-27T11:43:40.717Z,22.7
2014-09-27T11:43:58.938Z,22.7
2014-09-27T11:44:17.156Z,22.7
2014-09-27T11:44:35.375Z,22.7
2014-09-27T11:44:52.971Z,22.7
2014-09-27T11:45:09.940Z,22.7
2014-09-27T11:45:27.533Z,22.7
2014-09-27T11:45:45.127Z,22.7
2014-09-27T11:46:02.098Z,22.7
2014-09-27T11:46:19.692Z,22.7
2014-09-27T11:46:37.910Z,22.7
2014-09-27T11:46:54.239Z,22.7
2014-09-27T11:47:11.834Z,22.7
2014-09-27T11:47:30.194Z,22.7
2014-09-27T11:47:47.147Z,22.7
2014-09-27T11:48:05.381Z,22.7
2014-09-27T11:48:23.603Z,22.7
2014-09-27T11:48:41.962Z,22.7
2014-09-27T11:49:00.306Z,22.7
2014-09-27T11:49:18.042Z,22.7
2014-09-27T11:49:36.261Z,22.8
2014-09-27T11:49:54.496Z,22.8
2014-09-27T11:50:12.714Z,22.8
2014-09-27T11:50:29.684Z,22.8
2014-09-27T11:50:47.903Z,22.8
2014-09-27T11:51:05.497Z,22.8
2014-09-27T11:51:23.733Z,22.8
2014-09-27T11:51:41.967Z,22.8
2014-09-27T11:52:00.186Z,22.8
2014-09-27T11:52:17.780Z,22.8
2014-09-27T11:52:57.297Z,22.8
2014-09-27T11:53:14.891Z,22.8
2014-09-27T11:53:33.113Z,22.8
2014-09-27T11:53:50.707Z,22.8
2014-09-27T11:54:07.816Z,22.8
2014-09-27T11:54:26.035Z,22.8
2014-09-27T11:54:43.756Z,22.8
2014-09-27T11:55:02.115Z,22.8
2014-09-27T11:55:20.334Z,22.8
2014-09-27T11:55:38.569Z,22.9
2014-09-27T11:55:56.788Z,22.9
2014-09-27T11:56:15.007Z,22.9
2014-09-27T11:56:33.241Z,22.9
2014-09-27T11:56:50.196Z,22.9
2014-09-27T11:57:08.555Z,22.9
2014-09-27T11:57:26.790Z,22.9
2014-09-27T11:57:43.137Z,22.9
2014-09-27T11:58:01.355Z,22.9
2014-09-27T11:58:19.574Z,22.9
2014-09-27T11:58:37.793Z,22.9
2014-09-27T11:58:56.029Z,22.9
2014-09-27T11:59:13.623Z,22.9
2014-09-27T11:59:30.576Z,22.9
2014-09-27T11:59:48.312Z,22.9
2014-09-27T12:00:05.906Z,22.9
2014-09-27T12:00:23.516Z,22.9
2014-09-27T12:00:40.484Z,22.9
2014-09-27T12:00:58.705Z,22.9
2014-09-27T12:01:15.674Z,22.9
2014-09-27T12:01:33.893Z,22.9
2014-09-27T12:01:52.128Z,22.9
2014-09-27T12:02:10.347Z,22.9
2014-09-27T12:02:27.315Z,22.9
2014-09-27T12:02:45.534Z,22.9
2014-09-27T12:03:03.771Z,22.9
2014-09-27T12:03:21.989Z,22.9
2014-09-27T12:03:39.708Z,22.9
2014-09-27T12:03:57.305Z,22.9
2014-09-27T12:04:14.930Z,22.9
2014-09-27T12:04:32.649Z,22.9
2014-09-27T12:04:50.867Z,22.9
2014-09-27T12:05:09.088Z,22.9
2014-09-27T12:05:26.057Z,22.9
2014-09-27T12:05:43.651Z,22.9
2014-09-27T12:06:01.995Z,22.9
2014-09-27T12:06:20.355Z,22.9
2014-09-27T12:06:38.698Z,22.9
2014-09-27T12:06:56.323Z,22.9
2014-09-27T12:07:13.919Z,22.9
2014-09-27T12:07:30.888Z,22.9
2014-09-27T12:07:49.107Z,22.9
2014-09-27T12:08:07.468Z,22.9
2014-09-27T12:08:24.421Z,22.8
2014-09-27T12:08:42.781Z,22.9
2014-09-27T12:09:00.390Z,22.9
2014-09-27T12:09:18.612Z,22.9
2014-09-27T12:09:36.830Z,22.9
2014-09-27T12:09:55.049Z,22.9
2014-09-27T12:10:13.286Z,22.9
2014-09-27T12:10:30.879Z,22.9
2014-09-27T12:10:49.114Z,22.8
2014-09-27T12:11:04.817Z,22.8
2014-09-27T12:11:23.038Z,22.8
2014-09-27T12:11:41.256Z,22.9
2014-09-27T12:11:59.475Z,22.9
2014-09-27T12:12:17.694Z,22.9
2014-09-27T12:12:35.929Z,22.9
2014-09-27T12:12:53.523Z,22.9
2014-09-27T12:13:11.742Z,22.9
2014-09-27T12:13:29.963Z,22.9
2014-09-27T12:13:48.198Z,22.8
2014-09-27T12:14:06.417Z,22.9
2014-09-27T12:14:24.010Z,22.9
2014-09-27T12:14:41.606Z,22.9
2014-09-27T12:14:59.840Z,22.9
2014-09-27T12:15:17.559Z,22.9
2014-09-27T12:15:35.780Z,22.9
2014-09-27T12:15:53.514Z,22.9
2014-09-27T12:16:10.467Z,22.9
2014-09-27T12:16:28.202Z,22.9
2014-09-27T12:16:46.423Z,22.9
2014-09-27T12:17:04.157Z,22.9
2014-09-27T12:17:21.751Z,22.9
2014-09-27T12:17:38.737Z,22.9
2014-09-27T12:17:56.956Z,22.9
2014-09-27T12:18:15.190Z,22.9
2014-09-27T12:18:33.409Z,22.9
2014-09-27T12:18:51.630Z,22.9
2014-09-27T12:19:09.223Z,22.9
2014-09-27T12:19:27.442Z,22.9
2014-09-27T12:19:45.038Z,22.9
2014-09-27T12:20:03.288Z,22.9
2014-09-27T12:20:21.507Z,22.9
2014-09-27T12:20:39.241Z,22.9
2014-09-27T12:20:56.977Z,22.9
2014-09-27T12:21:14.556Z,22.9
2014-09-27T12:21:32.790Z,22.9
2014-09-27T12:21:50.386Z,22.9
2014-09-27T12:22:07.979Z,22.9
2014-09-27T12:22:26.198Z,22.9
2014-09-27T12:22:43.933Z,22.9
2014-09-27T12:23:01.513Z,22.9
2014-09-27T12:23:19.247Z,22.9
2014-09-27T12:23:37.466Z,22.9
2014-09-27T12:23:55.062Z,22.9
2014-09-27T12:24:12.030Z,22.9
2014-09-27T12:24:30.265Z,22.9
2014-09-27T12:24:47.858Z,22.9
2014-09-27T12:25:06.079Z,22.9
2014-09-27T12:25:23.673Z,22.9
2014-09-27T12:25:41.907Z,22.9
2014-09-27T12:26:00.128Z,22.9
2014-09-27T12:26:18.362Z,22.9
2014-09-27T12:26:36.581Z,22.9
2014-09-27T12:26:53.550Z,22.9
2014-09-27T12:27:11.146Z,22.9
2014-09-27T12:27:29.364Z,22.9
2014-09-27T12:27:46.333Z,22.9
2014-09-27T12:28:03.929Z,22.9
2014-09-27T12:28:22.288Z,22.9
2014-09-27T12:28:39.882Z,22.9
2014-09-27T12:28:58.101Z,22.9
2014-09-27T12:29:15.697Z,22.9
2014-09-27T12:29:33.915Z,22.9
2014-09-27T12:29:52.134Z,22.9
2014-09-27T12:30:09.745Z,22.9
2014-09-27T12:30:27.964Z,22.9
2014-09-27T12:30:45.558Z,22.9
2014-09-27T12:31:03.777Z,22.9
2014-09-27T12:31:20.247Z,22.9
2014-09-27T12:31:38.482Z,22.9
2014-09-27T12:31:56.076Z,22.9
2014-09-27T12:32:14.296Z,22.9
2014-09-27T12:32:32.515Z,22.9
2014-09-27T12:32:50.874Z,22.9
2014-09-27T12:33:08.609Z,22.9
2014-09-27T12:33:26.969Z,22.9
2014-09-27T12:33:45.188Z,22.9
2014-09-27T12:34:03.422Z,22.9
2014-09-27T12:34:20.410Z,22.9
2014-09-27T12:34:38.003Z,22.9
2014-09-27T12:34:56.222Z,22.9
2014-09-27T12:35:14.582Z,22.9
2014-09-27T12:35:32.943Z,22.9
2014-09-27T12:35:51.162Z,22.9
2014-09-27T12:36:09.396Z,22.9
2014-09-27T12:36:27.742Z,22.9
2014-09-27T12:36:45.976Z,22.9
2014-09-27T12:37:04.195Z,22.9
2014-09-27T12:37:22.416Z,22.9
2014-09-27T12:37:40.634Z,22.9
2014-09-27T12:37:56.978Z,22.9
2014-09-27T12:38:15.213Z,22.9
2014-09-27T12:38:33.432Z,22.9
2014-09-27T12:38:51.651Z,22.9
2014-09-27T12:39:09.245Z,22.9
2014-09-27T12:39:27.467Z,22.9
2014-09-27T12:39:44.435Z,23
2014-09-27T12:40:02.670Z,22.9
2014-09-27T12:40:20.888Z,23
2014-09-27T12:40:39.250Z,23
2014-09-27T12:40:57.484Z,23
2014-09-27T12:41:15.078Z,23
2014-09-27T12:41:32.674Z,23
2014-09-27T12:41:50.267Z,23
2014-09-27T12:42:08.502Z,23
2014-09-27T12:42:26.736Z,23
2014-09-27T12:42:44.957Z,23
2014-09-27T12:43:03.191Z,23
2014-09-27T12:43:20.144Z,23
2014-09-27T12:43:38.505Z,23
2014-09-27T12:43:56.114Z,23
2014-09-27T12:44:14.474Z,23
2014-09-27T12:44:32.692Z,23
2014-09-27T12:44:50.289Z,23
2014-09-27T12:45:08.508Z,23
2014-09-27T12:45:24.852Z,23
2014-09-27T12:45:43.087Z,23
2014-09-27T12:46:00.681Z,23
2014-09-27T12:46:18.274Z,23
2014-09-27T12:46:36.493Z,23
2014-09-27T12:46:54.715Z,23
2014-09-27T12:47:12.309Z,23
2014-09-27T12:47:30.527Z,23
2014-09-27T12:47:48.108Z,23
2014-09-27T12:48:06.326Z,23
2014-09-27T12:48:24.561Z,23
2014-09-27T12:48:42.779Z,23
2014-09-27T12:48:59.735Z,23
2014-09-27T12:49:16.703Z,23
2014-09-27T12:49:35.047Z,23
2014-09-27T12:49:52.642Z,23
2014-09-27T12:50:10.861Z,23
2014-09-27T12:50:29.079Z,23
2014-09-27T12:50:47.439Z,23
2014-09-27T12:51:05.660Z,23
2014-09-27T12:51:22.614Z,23
2014-09-27T12:51:40.973Z,23
2014-09-27T12:51:58.069Z,23
2014-09-27T12:52:15.178Z,23
2014-09-27T12:52:33.397Z,23
2014-09-27T12:52:51.616Z,23
2014-09-27T12:53:08.726Z,23
2014-09-27T12:53:26.335Z,23
2014-09-27T12:53:44.679Z,23
2014-09-27T12:54:02.901Z,23
2014-09-27T12:54:21.120Z,23
2014-09-27T12:54:38.713Z,23
2014-09-27T12:54:56.932Z,23
2014-09-27T12:55:15.153Z,23
2014-09-27T12:55:34.309Z,23
2014-09-27T12:55:52.653Z,23
2014-09-27T12:56:09.764Z,23
2014-09-27T12:56:26.717Z,23
2014-09-27T12:56:44.936Z,23
2014-09-27T12:57:02.530Z,23
2014-09-27T12:57:20.751Z,23
2014-09-27T12:57:38.985Z,23
2014-09-27T12:57:56.704Z,23
2014-09-27T12:58:13.674Z,23
2014-09-27T12:58:32.034Z,23
2014-09-27T12:58:49.628Z,23
2014-09-27T12:59:07.846Z,22.9
2014-09-27T12:59:26.067Z,23
2014-09-27T12:59:44.301Z,23
2014-09-27T13:00:01.880Z,23
2014-09-27T13:00:18.835Z,23
2014-09-27T13:00:37.053Z,23
2014-09-27T13:00:55.288Z,23
2014-09-27T13:01:12.882Z,23
2014-09-27T13:01:31.102Z,23
2014-09-27T13:01:49.446Z,23
2014-09-27T13:02:06.415Z,23
2014-09-27T13:02:23.995Z,23
2014-09-27T13:02:42.370Z,23
2014-09-27T13:03:00.729Z,23
2014-09-27T13:03:19.089Z,23
2014-09-27T13:03:37.309Z,23
2014-09-27T13:03:55.544Z,23
2014-09-27T13:04:12.513Z,23
2014-09-27T13:04:30.873Z,23
2014-09-27T13:04:49.092Z,23
2014-09-27T13:05:07.310Z,23
2014-09-27T13:05:25.670Z,23
2014-09-27T13:05:43.892Z,23
2014-09-27T13:06:02.110Z,23
2014-09-27T13:06:20.329Z,23
2014-09-27T13:06:38.550Z,23
2014-09-27T13:06:56.128Z,23
2014-09-27T13:07:14.487Z,23
2014-09-27T13:07:32.083Z,23
2014-09-27T13:07:49.677Z,23
2014-09-27T13:08:07.896Z,23
2014-09-27T13:08:24.880Z,23
2014-09-27T13:08:43.226Z,23
2014-09-27T13:09:01.460Z,23
2014-09-27T13:09:19.804Z,23
2014-09-27T13:09:38.025Z,23
2014-09-27T13:09:55.618Z,23
2014-09-27T13:10:13.837Z,23
2014-09-27T13:10:32.056Z,23
2014-09-27T13:10:50.276Z,23
2014-09-27T13:11:08.510Z,23
2014-09-27T13:11:26.088Z,23
2014-09-27T13:11:43.700Z,23
2014-09-27T13:12:01.919Z,23
2014-09-27T13:12:18.888Z,23
2014-09-27T17:14:11.961Z,23.2
2014-09-27T17:14:29.664Z,23
2014-09-27T17:14:48.401Z,22.9
2014-09-27T17:15:06.745Z,22.8
2014-09-27T17:15:24.307Z,22.8
2014-09-27T17:15:42.637Z,22.7
2014-09-27T17:16:00.356Z,22.6
2014-09-27T17:16:18.059Z,22.6
2014-09-27T17:16:36.264Z,22.5
2014-09-27T17:16:54.467Z,22.5
2014-09-27T17:17:12.030Z,22.5
2014-09-27T17:17:29.592Z,22.5
2014-09-27T17:17:47.797Z,22.5
2014-09-27T17:18:04.751Z,22.5
2014-09-27T17:18:22.313Z,22.5
2014-09-27T17:18:39.893Z,22.5
2014-09-27T17:18:58.221Z,22.5
2014-09-27T17:19:16.424Z,22.5
2014-09-27T17:19:34.003Z,22.5
2014-09-27T17:19:50.942Z,22.5
2014-09-27T17:20:07.895Z,22.5
2014-09-27T17:20:26.098Z,22.5
2014-09-27T17:20:44.428Z,22.5
2014-09-27T17:21:02.632Z,22.5
2014-09-27T17:21:20.835Z,22.5